Time;durP1;ratioP1;P1;durP2;ratioP2;P2;SDS_P1;SDS_P2;PMS_P1;PMS_P2;Temp;Humidity;BMP_temperature;BMP_pressure;BME280_temperature;BME280_humidity;BME280_pressure;Samples;Min_cycle;Max_cycle;Signal;HPM_P1;HPM_P2
2022/07/21 00:01:54;;;;;;;13.43;4.60;;;;;;;;;;6249509;22;20142;-94
2022/07/21 00:04:21;;;;;;;10.23;4.25;;;;;;;;;;6276286;22;20000;-86
2022/07/21 00:06:47;;;;;;;12.68;4.40;;;;;;;;;;6249461;22;20007;-86
2022/07/21 00:09:14;;;;;;;12.85;4.28;;;;;;;;;;6274900;22;19996;-91
2022/07/21 00:11:41;;;;;;;10.50;4.80;;;;;;;;;;6274439;22;20079;-94
2022/07/21 00:14:07;;;;;;;10.52;4.15;;;;;;;;;;6275654;22;20007;-93
2022/07/21 00:16:34;;;;;;;12.98;4.28;;;;;;;;;;6275285;22;20000;-90
2022/07/21 00:19:00;;;;;;;14.30;4.22;;;;;;;;;;6248367;22;20039;-92
2022/07/21 00:21:28;;;;;;;14.43;4.37;;;;;;;;;;6246985;23;20020;-95
2022/07/21 00:23:54;;;;;;;15.90;4.80;;;;;;;;;;6248080;23;20079;-90
2022/07/21 00:26:21;;;;;;;10.75;3.90;;;;;;;;;;6246143;23;20027;-94
2022/07/21 00:28:47;;;;;;;14.15;5.13;;;;;;;;;;6243616;23;19997;-93
2022/07/21 00:31:13;;;;;;;11.10;4.80;;;;;;;;;;6244167;23;20005;-95
2022/07/21 00:33:39;;;;;;;9.75;4.28;;;;;;;;;;6244550;23;19997;-93
2022/07/21 00:36:05;;;;;;;10.88;4.95;;;;;;;;;;6244368;23;20075;-95
2022/07/21 00:38:31;;;;;;;15.60;4.65;;;;;;;;;;6244152;23;20008;-86
2022/07/21 00:40:57;;;;;;;11.43;4.47;;;;;;;;;;6245062;23;20004;-93
2022/07/21 00:43:23;;;;;;;12.57;3.90;;;;;;;;;;6244355;23;20004;-92
2022/07/21 00:45:53;;;;;;;13.18;4.65;;;;;;;;;;6244549;23;20350;-93
2022/07/21 00:48:19;;;;;;;11.57;4.60;;;;;;;;;;6247508;22;20031;-94
2022/07/21 00:50:45;;;;;;;15.65;4.63;;;;;;;;;;6245589;23;20061;-87
2022/07/21 00:53:11;;;;;;;9.55;4.55;;;;;;;;;;6243873;23;20079;-94
2022/07/21 00:55:37;;;;;;;12.38;4.97;;;;;;;;;;6243300;23;20035;-94
2022/07/21 00:58:03;;;;;;;11.93;4.45;;;;;;;;;;6244061;23;20018;-89
2022/07/21 01:00:30;;;;;;;13.18;4.28;;;;;;;;;;6251163;23;20008;-95
2022/07/21 01:02:57;;;;;;;13.27;4.90;;;;;;;;;;6250813;23;20008;-90
2022/07/21 01:05:23;;;;;;;13.13;5.13;;;;;;;;;;6248736;23;20047;-92
2022/07/21 01:07:51;;;;;;;10.35;4.50;;;;;;;;;;6248039;23;20424;-94
2022/07/21 01:10:18;;;;;;;10.37;4.37;;;;;;;;;;6247377;23;20000;-90
2022/07/21 01:12:44;;;;;;;10.98;4.47;;;;;;;;;;6246622;23;20000;-93
2022/07/21 01:15:11;;;;;;;11.35;4.57;;;;;;;;;;6247383;23;20004;-89
2022/07/21 01:17:37;;;;;;;10.32;4.70;;;;;;;;;;6246693;23;20068;-94
2022/07/21 01:20:06;;;;;;;11.15;4.20;;;;;;;;;;6248213;22;20006;-86
2022/07/21 01:22:33;;;;;;;13.52;4.88;;;;;;;;;;6279162;22;20004;-94
2022/07/21 01:24:59;;;;;;;12.98;4.78;;;;;;;;;;6279581;22;20006;-92
2022/07/21 01:27:26;;;;;;;14.55;4.72;;;;;;;;;;6276200;22;20129;-94
2022/07/21 01:29:52;;;;;;;11.88;4.97;;;;;;;;;;6277513;22;20097;-95
2022/07/21 01:32:18;;;;;;;13.40;4.65;;;;;;;;;;6278266;22;20007;-95
2022/07/21 01:34:44;;;;;;;12.77;4.63;;;;;;;;;;6277019;22;20071;-95
2022/07/21 01:37:10;;;;;;;16.27;5.10;;;;;;;;;;6250815;22;20015;-94
2022/07/21 01:42:21;;;;;;;12.90;4.70;;;;;;;;;;6276107;22;20019;-86
2022/07/21 01:44:49;;;;;;;13.43;4.75;;;;;;;;;;6275003;22;20000;-94
2022/07/21 01:47:17;;;;;;;12.50;4.63;;;;;;;;;;6276854;22;20000;-94
2022/07/21 01:49:43;;;;;;;;;;;;;;;;;;6276613;22;20011;-94
2022/07/21 01:52:09;;;;;;;16.65;4.97;;;;;;;;;;6276153;22;19899;-96
2022/07/21 01:54:35;;;;;;;9.65;4.40;;;;;;;;;;6275843;22;20034;-86
2022/07/21 01:57:01;;;;;;;12.32;4.70;;;;;;;;;;6277556;22;19999;-95
2022/07/21 01:59:27;;;;;;;11.75;4.57;;;;;;;;;;6276545;22;20007;-94
2022/07/21 02:01:53;;;;;;;15.23;5.28;;;;;;;;;;6276926;22;19996;-95
2022/07/21 02:04:19;;;;;;;10.57;4.45;;;;;;;;;;6275165;22;19999;-93
2022/07/21 02:06:45;;;;;;;10.73;4.90;;;;;;;;;;6275925;22;19996;-95
2022/07/21 02:09:11;;;;;;;17.77;5.28;;;;;;;;;;6247816;22;20045;-93
2022/07/21 02:11:38;;;;;;;13.20;4.53;;;;;;;;;;6276445;22;20007;-94
2022/07/21 02:14:04;;;;;;;13.32;4.65;;;;;;;;;;6250698;22;20014;-93
2022/07/21 02:16:30;;;;;;;16.45;5.10;;;;;;;;;;6276329;22;20079;-86
2022/07/21 02:18:56;;;;;;;11.75;4.43;;;;;;;;;;6249180;22;20015;-93
2022/07/21 02:21:22;;;;;;;11.65;4.88;;;;;;;;;;6275601;22;20010;-95
2022/07/21 02:23:48;;;;;;;14.60;4.70;;;;;;;;;;6280388;22;20031;-93
2022/07/21 02:26:14;;;;;;;10.25;4.82;;;;;;;;;;6278280;22;20000;-93
2022/07/21 02:28:41;;;;;;;14.80;4.95;;;;;;;;;;6276197;22;19999;-92
2022/07/21 02:31:07;;;;;;;11.57;4.90;;;;;;;;;;6248628;22;20094;-84
2022/07/21 02:33:33;;;;;;;14.55;4.85;;;;;;;;;;6249576;22;20047;-92
2022/07/21 02:35:59;;;;;;;17.38;5.32;;;;;;;;;;6248692;22;20129;-94
2022/07/21 02:38:25;;;;;;;11.85;5.13;;;;;;;;;;6275160;22;20008;-95
2022/07/21 02:40:51;;;;;;;10.88;4.93;;;;;;;;;;6274045;22;20007;-92
2022/07/21 02:43:17;;;;;;;17.25;5.70;;;;;;;;;;6274975;22;20004;-86
2022/07/21 02:45:44;;;;;;;16.80;5.45;;;;;;;;;;6273475;22;20034;-94
2022/07/21 02:48:13;;;;;;;9.73;4.30;;;;;;;;;;6273685;22;20010;-87
2022/07/21 02:50:41;;;;;;;10.75;4.65;;;;;;;;;;6248588;22;20083;-92
2022/07/21 02:53:08;;;;;;;12.18;5.10;;;;;;;;;;6250398;22;20012;-94
2022/07/21 02:55:35;;;;;;;13.80;4.88;;;;;;;;;;6276817;22;20019;-93
2022/07/21 02:58:04;;;;;;;10.48;4.40;;;;;;;;;;6251004;22;20069;-86
2022/07/21 03:00:30;;;;;;;8.68;4.55;;;;;;;;;;6250256;22;20349;-92
2022/07/21 03:02:57;;;;;;;10.70;4.90;;;;;;;;;;6252881;22;20008;-92
2022/07/21 03:05:23;;;;;;;12.02;5.05;;;;;;;;;;6278920;22;20003;-94
2022/07/21 03:07:49;;;;;;;11.75;4.82;;;;;;;;;;6250653;22;20083;-95
2022/07/21 03:10:15;;;;;;;11.43;4.47;;;;;;;;;;6276431;22;20030;-94
2022/07/21 03:12:42;;;;;;;11.70;4.50;;;;;;;;;;6275999;22;20416;-88
2022/07/21 03:15:08;;;;;;;20.08;5.70;;;;;;;;;;6276808;22;19999;-93
2022/07/21 03:17:34;;;;;;;9.77;4.85;;;;;;;;;;6247724;22;20011;-86
2022/07/21 03:20:00;;;;;;;14.00;4.93;;;;;;;;;;6274389;22;20008;-89
2022/07/21 03:22:26;;;;;;;11.93;4.45;;;;;;;;;;6249435;22;20011;-94
2022/07/21 03:24:52;;;;;;;15.60;5.60;;;;;;;;;;6277313;22;20000;-92
2022/07/21 03:27:18;;;;;;;14.30;4.97;;;;;;;;;;6249186;22;19996;-90
2022/07/21 03:29:45;;;;;;;12.32;4.88;;;;;;;;;;6280317;22;20338;-95
2022/07/21 03:32:11;;;;;;;14.15;5.57;;;;;;;;;;6275142;22;20007;-92
2022/07/21 03:34:37;;;;;;;15.10;5.88;;;;;;;;;;6278294;22;20040;-96
2022/07/21 03:37:03;;;;;;;8.60;5.30;;;;;;;;;;6273038;22;20007;-94
2022/07/21 03:39:29;;;;;;;10.00;5.47;;;;;;;;;;6274330;22;20027;-94
2022/07/21 03:41:55;;;;;;;11.38;5.00;;;;;;;;;;6274138;22;20134;-86
2022/07/21 03:44:21;;;;;;;14.18;4.78;;;;;;;;;;6248467;22;20007;-94
2022/07/21 03:46:47;;;;;;;10.13;5.15;;;;;;;;;;6275327;22;20003;-94
2022/07/21 03:49:16;;;;;;;14.35;5.70;;;;;;;;;;6276852;22;20006;-92
2022/07/21 03:51:42;;;;;;;12.90;5.53;;;;;;;;;;6250050;22;20000;-86
2022/07/21 03:54:08;;;;;;;10.75;5.22;;;;;;;;;;6275721;22;20004;-93
2022/07/21 03:56:34;;;;;;;14.52;5.45;;;;;;;;;;6247538;22;20000;-93
2022/07/21 03:59:00;;;;;;;11.50;5.30;;;;;;;;;;6274114;22;20626;-88
2022/07/21 04:01:26;;;;;;;12.43;5.50;;;;;;;;;;6274215;22;20451;-93
2022/07/21 04:03:52;;;;;;;13.70;5.30;;;;;;;;;;6274038;22;20070;-92
2022/07/21 04:06:18;;;;;;;8.85;5.10;;;;;;;;;;6274098;22;20019;-94
2022/07/21 04:08:45;;;;;;;17.92;5.50;;;;;;;;;;6247785;22;19996;-93
2022/07/21 04:11:12;;;;;;;11.25;5.07;;;;;;;;;;6249064;22;20008;-95
2022/07/21 04:13:38;;;;;;;12.15;4.97;;;;;;;;;;6249008;22;20010;-91
2022/07/21 04:16:04;;;;;;;13.07;5.57;;;;;;;;;;6274388;22;20075;-86
2022/07/21 04:18:30;;;;;;;12.60;5.45;;;;;;;;;;6275111;22;20011;-90
2022/07/21 04:20:56;;;;;;;14.93;5.45;;;;;;;;;;6274372;22;20019;-93
2022/07/21 04:23:22;;;;;;;9.57;5.43;;;;;;;;;;6273216;22;20004;-94
2022/07/21 04:25:48;;;;;;;12.35;5.18;;;;;;;;;;6272312;22;20007;-90
2022/07/21 04:28:14;;;;;;;11.57;5.25;;;;;;;;;;6273835;22;20000;-93
2022/07/21 04:30:40;;;;;;;11.40;5.30;;;;;;;;;;6273980;22;20078;-94
2022/07/21 04:33:06;;;;;;;10.93;5.63;;;;;;;;;;6245291;22;20007;-94
2022/07/21 04:35:32;;;;;;;14.15;5.18;;;;;;;;;;6272373;22;20211;-93
2022/07/21 04:37:58;;;;;;;16.63;5.20;;;;;;;;;;6244759;22;20015;-94
2022/07/21 04:40:25;;;;;;;11.65;5.97;;;;;;;;;;6273735;22;20003;-94
2022/07/21 04:42:51;;;;;;;10.38;5.13;;;;;;;;;;6248257;22;20356;-88
2022/07/21 04:45:17;;;;;;;11.90;5.65;;;;;;;;;;6280760;22;20025;-93
2022/07/21 04:47:43;;;;;;;13.75;5.80;;;;;;;;;;6282738;22;20000;-90
2022/07/21 04:50:09;;;;;;;13.73;5.22;;;;;;;;;;6279820;22;20011;-92
2022/07/21 04:52:43;;;;;;;10.23;5.35;;;;;;;;;;6248308;22;20004;-93
2022/07/21 04:55:09;;;;;;;13.10;5.07;;;;;;;;;;6251779;22;20030;-95
2022/07/21 04:57:40;;;;;;;13.35;5.65;;;;;;;;;;6284720;22;20133;-94
2022/07/21 05:00:07;;;;;;;10.50;5.50;;;;;;;;;;6284970;22;19996;-95
2022/07/21 05:02:33;;;;;;;13.37;5.50;;;;;;;;;;6255704;22;20027;-93
2022/07/21 05:05:01;;;;;;;14.25;5.80;;;;;;;;;;6287011;22;20074;-95
2022/07/21 05:07:27;;;;;;;12.98;5.10;;;;;;;;;;6284709;22;20004;-88
2022/07/21 05:09:53;;;;;;;13.60;5.70;;;;;;;;;;6282059;22;20052;-91
2022/07/21 05:12:19;;;;;;;15.52;5.72;;;;;;;;;;6259193;22;20004;-93
2022/07/21 05:14:45;;;;;;;17.65;6.00;;;;;;;;;;6283554;22;19996;-86
2022/07/21 05:17:11;;;;;;;11.18;5.22;;;;;;;;;;6286917;22;19999;-95
2022/07/21 05:19:37;;;;;;;10.93;5.78;;;;;;;;;;6278274;22;20034;-95
2022/07/21 05:22:03;;;;;;;18.33;6.10;;;;;;;;;;6280028;22;20030;-93
2022/07/21 05:24:29;;;;;;;11.95;6.15;;;;;;;;;;6279608;22;20008;-93
2022/07/21 05:26:55;;;;;;;13.55;5.00;;;;;;;;;;6279121;22;20110;-94
2022/07/21 05:29:21;;;;;;;12.80;5.43;;;;;;;;;;6279383;22;20004;-87
2022/07/21 05:31:47;;;;;;;11.57;5.55;;;;;;;;;;6279806;22;20032;-86
2022/07/21 05:34:13;;;;;;;14.05;5.63;;;;;;;;;;6284627;22;20000;-93
2022/07/21 05:36:39;;;;;;;14.85;5.80;;;;;;;;;;6289711;22;19996;-95
2022/07/21 05:39:05;;;;;;;15.73;6.18;;;;;;;;;;6257357;22;20012;-96
2022/07/21 05:41:31;;;;;;;18.65;5.30;;;;;;;;;;6255665;22;20429;-92
2022/07/21 05:43:57;;;;;;;12.88;5.85;;;;;;;;;;6281370;22;20004;-95
2022/07/21 05:46:23;;;;;;;10.95;5.18;;;;;;;;;;6253545;22;20517;-94
2022/07/21 05:48:49;;;;;;;13.77;5.50;;;;;;;;;;6280256;22;20061;-95
2022/07/21 05:51:15;;;;;;;15.73;6.20;;;;;;;;;;6279907;22;20000;-95
2022/07/21 05:53:41;;;;;;;18.20;6.20;;;;;;;;;;6278375;22;19999;-87
2022/07/21 05:56:08;;;;;;;16.23;6.00;;;;;;;;;;6264485;22;20422;-91
2022/07/21 05:58:34;;;;;;;19.10;5.82;;;;;;;;;;6271139;22;20494;-86
2022/07/21 06:01:12;;;;;;;11.43;5.97;;;;;;;;;;6278882;22;20006;-94
2022/07/21 06:03:39;;;;;;;12.82;5.78;;;;;;;;;;6253943;22;20391;-92
2022/07/21 06:06:05;;;;;;;15.48;5.95;;;;;;;;;;6283277;22;20048;-94
2022/07/21 06:08:32;;;;;;;12.98;5.72;;;;;;;;;;6247820;22;20031;-94
2022/07/21 06:10:58;;;;;;;21.67;6.72;;;;;;;;;;6275071;22;20071;-87
2022/07/21 06:13:24;;;;;;;12.77;6.25;;;;;;;;;;6273919;22;20007;-95
2022/07/21 06:15:50;;;;;;;13.75;6.22;;;;;;;;;;6280782;22;20007;-89
2022/07/21 06:18:16;;;;;;;10.23;5.63;;;;;;;;;;6283938;22;20042;-86
2022/07/21 06:20:42;;;;;;;12.40;6.20;;;;;;;;;;6275884;22;20003;-91
2022/07/21 06:23:08;;;;;;;12.27;5.90;;;;;;;;;;6280079;22;20008;-94
2022/07/21 06:25:35;;;;;;;14.50;5.60;;;;;;;;;;6290832;22;19984;-95
2022/07/21 06:28:01;;;;;;;16.33;6.07;;;;;;;;;;6285012;22;20356;-90
2022/07/21 06:30:42;;;;;;;16.00;5.95;;;;;;;;;;6293380;22;20035;-86
2022/07/21 06:33:08;;;;;;;12.07;5.18;;;;;;;;;;6287299;22;20065;-93
2022/07/21 06:35:35;;;;;;;15.20;5.15;;;;;;;;;;6292468;22;20003;-94
2022/07/21 06:38:01;;;;;;;11.98;4.95;;;;;;;;;;6284831;22;20098;-92
2022/07/21 06:40:27;;;;;;;13.07;5.40;;;;;;;;;;6285368;22;20072;-93
2022/07/21 06:42:54;;;;;;;18.05;5.15;;;;;;;;;;6286734;22;20448;-89
2022/07/21 06:45:20;;;;;;;12.52;5.18;;;;;;;;;;6293398;22;20034;-87
2022/07/21 06:47:47;;;;;;;15.43;5.60;;;;;;;;;;6298401;22;19987;-89
2022/07/21 06:50:28;;;;;;;11.23;5.18;;;;;;;;;;6297947;22;20058;-94
2022/07/21 06:52:57;;;;;;;11.65;4.85;;;;;;;;;;6279553;22;20004;-93
2022/07/21 06:55:24;;;;;;;13.60;5.53;;;;;;;;;;6295333;22;19992;-94
2022/07/21 06:57:50;;;;;;;8.65;4.82;;;;;;;;;;6268911;22;20007;-88
2022/07/21 07:00:25;;;;;;;10.20;4.70;;;;;;;;;;6302966;22;20004;-87
2022/07/21 07:02:54;;;;;;;19.08;5.20;;;;;;;;;;6297314;22;19996;-93
2022/07/21 07:05:23;;;;;;;13.57;4.70;;;;;;;;;;6294043;22;19992;-94
2022/07/21 07:07:50;;;;;;;12.85;4.88;;;;;;;;;;6292115;22;20060;-88
2022/07/21 07:10:16;;;;;;;14.90;4.70;;;;;;;;;;6259879;22;20007;-88
2022/07/21 07:12:42;;;;;;;12.63;5.45;;;;;;;;;;6274374;22;20424;-87
2022/07/21 07:15:08;;;;;;;13.25;4.93;;;;;;;;;;6280157;22;20023;-94
2022/07/21 07:17:34;;;;;;;11.88;4.88;;;;;;;;;;6282601;22;20039;-86
2022/07/21 07:20:00;;;;;;;11.93;5.13;;;;;;;;;;6291332;22;20000;-93
2022/07/21 07:22:26;;;;;;;11.93;4.22;;;;;;;;;;6280603;22;20050;-89
2022/07/21 07:24:53;;;;;;;10.55;4.55;;;;;;;;;;6294429;22;20000;-87
2022/07/21 07:27:21;;;;;;;11.37;4.50;;;;;;;;;;6270161;22;20004;-87
2022/07/21 07:29:47;;;;;;;15.32;4.53;;;;;;;;;;6268840;22;20007;-95
2022/07/21 07:32:13;;;;;;;13.75;4.88;;;;;;;;;;6293565;22;20004;-87
2022/07/21 07:34:39;;;;;;;10.85;4.30;;;;;;;;;;6287470;22;20004;-95
2022/07/21 07:37:05;;;;;;;11.90;4.18;;;;;;;;;;6290560;22;20055;-87
2022/07/21 07:39:31;;;;;;;10.43;4.03;;;;;;;;;;6298533;22;19995;-88
2022/07/21 07:41:57;;;;;;;13.82;4.22;;;;;;;;;;6293802;22;20452;-95
2022/07/21 07:44:23;;;;;;;9.00;4.38;;;;;;;;;;6263197;22;19991;-91
2022/07/21 07:46:49;;;;;;;9.95;4.10;;;;;;;;;;6258550;22;20051;-95
2022/07/21 07:49:16;;;;;;;19.70;4.50;;;;;;;;;;6263315;22;20015;-93
2022/07/21 07:51:45;;;;;;;17.55;4.50;;;;;;;;;;6287072;22;19987;-92
2022/07/21 07:54:11;;;;;;;12.20;4.90;;;;;;;;;;6266039;22;20015;-88
2022/07/21 07:56:37;;;;;;;12.35;4.70;;;;;;;;;;6289446;22;20019;-90
2022/07/21 07:59:03;;;;;;;12.07;4.80;;;;;;;;;;6293267;22;20011;-93
2022/07/21 08:01:29;;;;;;;8.77;4.65;;;;;;;;;;6288782;22;19996;-95
2022/07/21 08:03:56;;;;;;;9.30;5.00;;;;;;;;;;6263920;22;19992;-88
2022/07/21 08:06:23;;;;;;;8.90;4.45;;;;;;;;;;6297437;22;20008;-90
2022/07/21 08:08:58;;;;;;;14.43;5.10;;;;;;;;;;6290178;22;20054;-94
2022/07/21 08:11:26;;;;;;;8.55;4.78;;;;;;;;;;6282890;22;20007;-94
2022/07/21 08:13:53;;;;;;;13.60;4.90;;;;;;;;;;6286821;22;20011;-93
2022/07/21 08:16:19;;;;;;;10.25;4.55;;;;;;;;;;6261735;22;20381;-88
2022/07/21 08:18:46;;;;;;;10.75;5.05;;;;;;;;;;6282659;22;20012;-87
2022/07/21 08:21:13;;;;;;;11.50;4.95;;;;;;;;;;6288496;22;20015;-88
2022/07/21 08:23:39;;;;;;;11.82;4.72;;;;;;;;;;6256803;22;20034;-88
2022/07/21 08:26:05;;;;;;;6.72;3.90;;;;;;;;;;6258815;22;19999;-87
2022/07/21 08:28:31;;;;;;;11.75;4.28;;;;;;;;;;6286566;22;20004;-87
2022/07/21 08:30:57;;;;;;;10.80;4.60;;;;;;;;;;6290580;22;20007;-88
2022/07/21 08:33:43;;;;;;;15.30;4.50;;;;;;;;;;6285807;22;20034;-88
2022/07/21 08:36:10;;;;;;;9.65;4.70;;;;;;;;;;6288699;22;20008;-88
2022/07/21 08:38:52;;;;;;;8.95;4.57;;;;;;;;;;6284805;22;20069;-88
2022/07/21 08:41:18;;;;;;;8.20;4.10;;;;;;;;;;6288432;22;19996;-87
2022/07/21 08:43:44;;;;;;;9.07;4.13;;;;;;;;;;6273974;22;19999;-87
2022/07/21 08:46:10;;;;;;;10.00;4.30;;;;;;;;;;6273683;22;20000;-92
2022/07/21 08:48:37;;;;;;;7.68;4.40;;;;;;;;;;6273649;22;20011;-84
2022/07/21 08:51:03;;;;;;;8.82;4.32;;;;;;;;;;6273291;22;19996;-85
2022/07/21 08:53:29;;;;;;;10.95;4.40;;;;;;;;;;6273409;22;20004;-85
2022/07/21 08:55:55;;;;;;;11.88;4.43;;;;;;;;;;6247161;22;19999;-85
2022/07/21 08:58:21;;;;;;;10.23;4.15;;;;;;;;;;6247234;22;20099;-91
2022/07/21 09:00:48;;;;;;;10.43;4.35;;;;;;;;;;6275437;22;20000;-93
2022/07/21 09:03:20;;;;;;;12.85;4.30;;;;;;;;;;6276727;22;20052;-85
2022/07/21 09:06:07;;;;;;;8.52;4.30;;;;;;;;;;6275725;22;20049;-90
2022/07/21 09:08:39;;;;;;;8.45;4.22;;;;;;;;;;6277444;22;20007;-86
2022/07/21 09:11:11;;;;;;;10.73;4.40;;;;;;;;;;6281806;22;19999;-87
2022/07/21 09:13:37;;;;;;;12.50;4.28;;;;;;;;;;6253662;22;20440;-92
2022/07/21 09:16:03;;;;;;;12.00;4.15;;;;;;;;;;6260595;22;20037;-87
2022/07/21 09:18:29;;;;;;;8.27;4.00;;;;;;;;;;6278900;22;20047;-87
2022/07/21 09:20:58;;;;;;;10.95;3.67;;;;;;;;;;6255483;22;20004;-88
2022/07/21 09:23:30;;;;;;;6.68;4.15;;;;;;;;;;6289373;22;20016;-87
2022/07/21 09:26:07;;;;;;;27.55;4.57;;;;;;;;;;6293641;22;20068;-87
2022/07/21 09:28:33;;;;;;;27.10;4.78;;;;;;;;;;6293123;22;20043;-87
2022/07/21 09:31:04;;;;;;;10.23;3.72;;;;;;;;;;6287351;22;20022;-86
2022/07/21 09:33:32;;;;;;;7.50;3.72;;;;;;;;;;6284293;22;20000;-90
2022/07/21 09:35:58;;;;;;;9.07;3.97;;;;;;;;;;6260650;22;20043;-88
2022/07/21 09:38:45;;;;;;;9.05;4.80;;;;;;;;;;6294925;22;20387;-89
2022/07/21 09:41:26;;;;;;;12.07;4.72;;;;;;;;;;6292341;22;20008;-88
2022/07/21 09:43:54;;;;;;;7.30;4.03;;;;;;;;;;6285450;22;20015;-89
2022/07/21 09:46:21;;;;;;;10.83;4.10;;;;;;;;;;6254796;22;20342;-92
2022/07/21 09:48:48;;;;;;;15.60;4.70;;;;;;;;;;6290297;22;19988;-87
2022/07/21 09:51:30;;;;;;;;;;;;;;;;;;;;;
2022/07/21 09:54:02;;;;;;;10.20;4.15;;;;;;;;;;6277910;22;20087;-94
2022/07/21 09:56:29;;;;;;;16.33;4.63;;;;;;;;;;6276283;22;20000;-88
2022/07/21 09:58:57;;;;;;;9.10;4.20;;;;;;;;;;6250857;22;20034;-87
2022/07/21 10:01:23;;;;;;;10.98;3.92;;;;;;;;;;6249474;22;20031;-88
2022/07/21 10:03:50;;;;;;;14.13;3.63;;;;;;;;;;6248585;22;20007;-89
2022/07/21 10:06:17;;;;;;;13.90;4.00;;;;;;;;;;6273657;22;20000;-91
2022/07/21 10:08:44;;;;;;;10.00;4.28;;;;;;;;;;6276110;22;20000;-89
2022/07/21 10:11:10;;;;;;;15.85;3.92;;;;;;;;;;6276909;22;20000;-91
2022/07/21 10:13:39;;;;;;;9.30;3.90;;;;;;;;;;6274302;22;20011;-90
2022/07/21 10:16:25;;;;;;;9.88;3.83;;;;;;;;;;6247103;22;20084;-92
2022/07/21 10:19:09;;;;;;;9.55;4.18;;;;;;;;;;6246672;22;20011;-91
2022/07/21 10:21:36;;;;;;;7.10;3.78;;;;;;;;;;6273807;22;20004;-94
2022/07/21 10:24:03;;;;;;;14.93;4.53;;;;;;;;;;6246648;22;20061;-92
2022/07/21 10:26:52;;;;;;;10.38;4.57;;;;;;;;;;6273822;22;20003;-91
2022/07/21 10:29:36;;;;;;;11.77;3.90;;;;;;;;;;6272673;22;20004;-94
2022/07/21 10:32:13;;;;;;;13.57;4.10;;;;;;;;;;6247150;22;20328;-92
2022/07/21 10:34:39;;;;;;;8.93;3.70;;;;;;;;;;6273536;22;20062;-89
2022/07/21 10:37:05;;;;;;;9.73;3.78;;;;;;;;;;6246218;22;20083;-91
2022/07/21 10:39:35;;;;;;;9.38;3.60;;;;;;;;;;6246520;22;20025;-93
2022/07/21 10:42:21;;;;;;;6.28;3.40;;;;;;;;;;6213932;23;20005;-94
2022/07/21 10:44:47;;;;;;;10.15;3.60;;;;;;;;;;6215498;23;20008;-93
2022/07/21 10:47:19;;;;;;;8.27;3.78;;;;;;;;;;6212995;23;20008;-89
2022/07/21 10:49:47;;;;;;;7.95;4.05;;;;;;;;;;6186590;23;20001;-95
2022/07/21 10:52:34;;;;;;;8.52;3.55;;;;;;;;;;6212711;23;20004;-93
2022/07/21 10:55:36;;;;;;;9.00;3.70;;;;;;;;;;6187187;23;20000;-91
2022/07/21 10:58:14;;;;;;;10.25;3.58;;;;;;;;;;6068959;23;20022;-93
2022/07/21 11:00:47;;;;;;;10.68;4.38;;;;;;;;;;6197488;23;20004;-90
2022/07/21 11:03:15;;;;;;;7.15;4.00;;;;;;;;;;6211539;23;20004;-95
2022/07/21 11:06:00;;;;;;;9.35;3.90;;;;;;;;;;6184676;23;20084;-89
2022/07/21 11:08:33;;;;;;;10.52;4.03;;;;;;;;;;6210200;23;20083;-88
2022/07/21 11:11:09;;;;;;;7.97;3.92;;;;;;;;;;6209765;23;20457;-88
2022/07/21 11:13:54;;;;;;;10.82;4.15;;;;;;;;;;6221272;22;20395;-90
2022/07/21 11:16:20;;;;;;;10.45;3.90;;;;;;;;;;6273871;22;20000;-93
2022/07/21 11:18:46;;;;;;;9.88;3.85;;;;;;;;;;6272005;22;20018;-93
2022/07/21 11:21:16;;;;;;;8.00;3.83;;;;;;;;;;6271985;22;20031;-94
2022/07/21 11:23:46;;;;;;;8.30;3.80;;;;;;;;;;6245017;22;20007;-88
2022/07/21 11:26:14;;;;;;;7.85;3.55;;;;;;;;;;6272733;22;19995;-92
2022/07/21 11:28:40;;;;;;;8.23;3.93;;;;;;;;;;6245415;22;20003;-92
2022/07/21 11:31:09;;;;;;;7.07;3.75;;;;;;;;;;6272341;22;20000;-87
2022/07/21 11:33:42;;;;;;;6.95;3.55;;;;;;;;;;6272343;22;20072;-83
2022/07/21 11:36:08;;;;;;;8.80;3.58;;;;;;;;;;6272477;22;20428;-90
2022/07/21 11:38:34;;;;;;;6.68;3.60;;;;;;;;;;6245418;22;20039;-87
2022/07/21 11:41:13;;;;;;;6.40;3.42;;;;;;;;;;6273537;22;20375;-89
2022/07/21 11:43:42;;;;;;;8.45;3.60;;;23.80;99.90;;;;;;6273067;22;20000;-89
2022/07/21 11:46:08;;;;;;;9.18;3.22;;;23.90;99.30;;;;;;6271539;22;20490;-90
2022/07/21 11:48:33;;;;;;;6.32;3.10;;;23.90;99.90;;;;;;6271390;22;20000;-86
2022/07/21 11:51:01;;;;;;;8.18;3.30;;;23.90;98.00;;;;;;6273070;22;20451;-90
2022/07/21 11:53:26;;;;;;;6.43;3.35;;;23.50;94.80;;;;;;6272142;22;20429;-89
2022/07/21 11:55:53;;;;;;;9.80;3.35;;;23.30;99.40;;;;;;6271960;22;20323;-88
2022/07/21 11:58:19;;;;;;;5.63;3.60;;;23.60;97.30;;;;;;6271322;22;20452;-87
2022/07/21 12:00:48;;;;;;;5.50;3.35;;;23.10;95.40;;;;;;6271663;22;20031;-92
2022/07/21 12:03:14;;;;;;;6.53;3.30;;;23.30;97.60;;;;;;6273299;22;20078;-87
2022/07/21 12:05:42;;;;;;;8.45;3.35;;;23.40;98.90;;;;;;6271486;22;20030;-86
2022/07/21 12:08:08;;;;;;;9.95;3.80;;;23.20;97.30;;;;;;6271122;22;20383;-85
2022/07/21 12:10:34;;;;;;;15.45;4.07;;;23.00;96.00;;;;;;6272292;22;20023;-84
2022/07/21 12:13:01;;;;;;;6.72;3.70;;;23.10;96.50;;;;;;6272856;22;20003;-91
2022/07/21 12:15:33;;;;;;;6.78;3.20;;;22.90;94.80;;;;;;6271342;22;20000;-89
2022/07/21 12:18:05;;;;;;;8.40;3.78;;;23.00;98.10;;;;;;6245263;22;20325;-93
2022/07/21 12:20:37;;;;;;;7.53;3.50;;;22.90;95.20;;;;;;6272831;22;20074;-86
2022/07/21 12:23:17;;;;;;;6.45;3.45;;;23.40;99.30;;;;;;6272134;22;20084;-84
2022/07/21 12:25:43;;;;;;;6.75;3.40;;;23.80;96.90;;;;;;6271691;22;20010;-96
2022/07/21 12:28:09;;;;;;;6.32;3.22;;;24.10;93.80;;;;;;6272772;22;20011;-84
2022/07/21 12:30:50;;;;;;;8.48;3.35;;;24.10;96.00;;;;;;6273283;22;20340;-84
2022/07/21 12:33:26;;;;;;;7.93;3.80;;;24.00;95.60;;;;;;6271545;22;20066;-84
2022/07/21 12:36:05;;;;;;;10.75;3.78;;;24.30;93.10;;;;;;6270964;22;20463;-89
2022/07/21 12:38:48;;;;;;;6.30;3.42;;;24.20;93.00;;;;;;6272329;22;20054;-92
2022/07/21 12:41:15;;;;;;;5.30;3.45;;;24.10;91.40;;;;;;6271997;22;19999;-86
2022/07/21 12:43:41;;;;;;;;;;;24.40;90.20;;;;;;6244379;22;20026;-85
2022/07/21 12:46:14;;;;;;;5.65;3.35;;;24.10;90.10;;;;;;6243648;22;20335;-90
2022/07/21 12:48:40;;;;;;;9.48;3.35;;;24.30;92.40;;;;;;6244105;22;20010;-88
2022/07/21 12:51:10;;;;;;;5.22;3.47;;;24.60;85.40;;;;;;6271113;22;20011;-88
2022/07/21 12:53:40;;;;;;;11.55;3.70;;;24.60;90.40;;;;;;6271280;22;19995;-91
2022/07/21 12:56:06;;;;;;;5.80;3.00;;;24.70;86.00;;;;;;6270881;22;20000;-83
2022/07/21 12:58:32;;;;;;;9.23;3.58;;;24.70;90.00;;;;;;6272165;22;20022;-89
2022/07/21 13:00:57;;;;;;;8.07;3.30;;;24.60;85.90;;;;;;6272536;22;20071;-86
2022/07/21 13:03:23;;;;;;;57.35;7.10;;;24.90;90.80;;;;;;6270644;22;20432;-89
2022/07/21 13:05:49;;;;;;;7.47;3.10;;;25.20;87.00;;;;;;6271478;22;19996;-92
2022/07/21 13:08:15;;;;;;;7.03;3.30;;;25.20;84.60;;;;;;6244977;22;20030;-86
2022/07/21 13:10:41;;;;;;;10.57;3.28;;;25.00;70.50;;;;;;6271669;22;20147;-87
2022/07/21 13:13:06;;;;;;;11.27;3.85;;;24.90;80.40;;;;;;6271321;22;20000;-90
2022/07/21 13:15:32;;;;;;;10.15;3.80;;;25.20;81.20;;;;;;6272206;22;20002;-88
2022/07/21 13:17:58;;;;;;;8.68;3.28;;;25.40;77.90;;;;;;6271511;22;20042;-89
2022/07/21 13:20:23;;;;;;;12.05;3.63;;;25.40;76.10;;;;;;6273231;22;20133;-85
2022/07/21 13:22:49;;;;;;;6.95;3.28;;;25.50;74.70;;;;;;6272999;22;20462;-87
2022/07/21 13:25:15;;;;;;;8.43;3.03;;;25.70;73.80;;;;;;6265969;22;20377;-85
2022/07/21 13:27:41;;;;;;;9.20;3.17;;;25.50;73.00;;;;;;6271890;22;20444;-87
2022/07/21 13:30:08;;;;;;;33.17;4.65;;;25.20;75.20;;;;;;6272101;22;19996;-84
2022/07/21 13:32:34;;;;;;;9.52;3.25;;;25.30;73.90;;;;;;6273476;22;20516;-85
2022/07/21 13:35:00;;;;;;;7.90;3.10;;;25.40;72.20;;;;;;6274155;22;20023;-85
2022/07/21 13:37:26;;;;;;;5.60;3.03;;;25.30;70.60;;;;;;6274937;22;20004;-86
2022/07/21 13:39:52;;;;;;;6.35;3.00;;;25.40;71.50;;;;;;6274304;22;20008;-89
2022/07/21 13:42:18;;;;;;;6.43;3.15;;;25.50;69.90;;;;;;6272443;22;20071;-87
2022/07/21 13:44:43;;;;;;;10.43;3.42;;;25.70;70.90;;;;;;6272971;22;20004;-88
2022/07/21 13:47:09;;;;;;;6.53;3.10;;;25.80;71.20;;;;;;6272561;22;20401;-89
2022/07/21 13:49:35;;;;;;;7.32;3.00;;;25.80;69.50;;;;;;6274175;22;20010;-90
2022/07/21 13:52:01;;;;;;;7.75;3.00;;;25.90;67.80;;;;;;6246222;22;20336;-91
2022/07/21 13:54:28;;;;;;;6.28;2.97;;;25.90;62.60;;;;;;6272847;22;20444;-89
2022/07/21 13:56:53;;;;;;;6.18;2.97;;;25.90;66.70;;;;;;6272614;22;20035;-90
2022/07/21 13:59:19;;;;;;;9.52;2.92;;;25.80;66.40;;;;;;6272313;22;20053;-88
2022/07/21 14:01:45;;;;;;;8.23;3.28;;;25.90;66.50;;;;;;6272393;22;20042;-84
2022/07/21 14:04:10;;;;;;;11.30;3.45;;;25.90;67.40;;;;;;6272286;22;20046;-89
2022/07/21 14:06:36;;;;;;;12.05;3.35;;;26.00;63.80;;;;;;6273596;22;20056;-85
2022/07/21 14:09:03;;;;;;;7.65;3.13;;;25.90;62.20;;;;;;6273681;22;20352;-89
2022/07/21 14:11:28;;;;;;;7.38;3.30;;;25.90;65.80;;;;;;6271912;22;20003;-87
2022/07/21 14:13:55;;;;;;;6.65;3.20;;;25.90;66.40;;;;;;6272397;22;20422;-85
2022/07/21 14:16:20;;;;;;;6.20;3.30;;;25.80;62.40;;;;;;6272125;22;20329;-89
2022/07/21 14:18:46;;;;;;;4.47;2.90;;;25.60;64.40;;;;;;6272417;22;20007;-84